Ms Megan — WDE3441 — position and weather

sailwx.info

Track history (hours):
 
Tides and Currents Weather Stations Pressure Air Temp Water Temp Dewpoint Dewpoint Depression Visibility Wind Speed Wind Dir Waves Ship Positions

Ms Megan

Owner: MNM BOATS, INC, GOLDEN MEADOW, LA. More information available from US FCC via Universal Licensing System and Coast Guard Vessel Documentation Center.

Last reported at 2018-Feb-22 05:40 UTC. Time now 2018-Feb-23 10:34 UTC.
Position N 29°39' W 092°16'.

Length 50 m; draft 3 m.

Type: Cargo ship. MMSI: 367339130.

Date/timePositionNaut miles runAvg speedWind from/ knotsBaromVisibWave heightAir tempDewpointWater temp
2018-Feb-22 05:40N 29°39' W 092°16'1 8.1
2018-Feb-22 05:30N 29°41' W 092°15'4 7.9
2018-Feb-22 05:00N 29°44' W 092°14'4 7.9
2018-Feb-22 04:30N 29°47' W 092°10'2 3.1
2018-Feb-22 04:00N 29°48' W 092°09'0 0.0
2018-Feb-22 03:28N 29°48' W 092°09'0 0.0
2018-Feb-22 03:00N 29°48' W 092°09'0 0.0
2018-Feb-22 02:28N 29°48' W 092°09'0 0.0
2018-Feb-22 02:00N 29°48' W 092°09'0 0.0
2018-Feb-22 01:30N 29°48' W 092°09'0 0.0
2018-Feb-22 01:00N 29°48' W 092°09'0 0.0
2018-Feb-22 00:30N 29°48' W 092°09'0 0.0
2018-Feb-22 00:00N 29°48' W 092°09'0 0.0
2018-Feb-21 23:28N 29°48' W 092°09'0 0.0
2018-Feb-21 23:00N 29°48' W 092°09'0 0.0
2018-Feb-21 22:28N 29°48' W 092°09'0 0.2
2018-Feb-21 22:01N 29°48' W 092°09'0 0.0
2018-Feb-21 21:30N 29°48' W 092°09'0 0.0
2018-Feb-21 21:00N 29°48' W 092°09'0 0.0
2018-Feb-21 20:31N 29°48' W 092°09'0 0.1
2018-Feb-21 20:01N 29°48' W 092°08'0 0.1
2018-Feb-21 19:30N 29°48' W 092°09'0 0.0
2018-Feb-21 19:00N 29°48' W 092°09'0 0.2
2018-Feb-21 18:30N 29°48' W 092°09'0 0.0
2018-Feb-21 18:00N 29°48' W 092°09'0 0.0
2018-Feb-21 17:30N 29°48' W 092°09'0 0.0
2018-Feb-21 17:00N 29°48' W 092°09'0 0.1
2018-Feb-21 16:30N 29°47' W 092°09'0 0.1
2018-Feb-21 16:00N 29°47' W 092°09'0 0.2
2018-Feb-21 15:30N 29°48' W 092°09'0 0.2
2018-Feb-21 14:59N 29°47' W 092°09'0 0.0
2018-Feb-21 14:30N 29°47' W 092°09'0 0.0
2018-Feb-21 14:00N 29°47' W 092°09'0 0.0
2018-Feb-21 13:30N 29°47' W 092°09'0 0.0
2018-Feb-21 13:01N 29°47' W 092°09'0 0.0
2018-Feb-21 12:31N 29°47' W 092°09'0 0.0
2018-Feb-21 12:00N 29°47' W 092°09'0 0.0
2018-Feb-21 11:27N 29°47' W 092°09'0 0.0
2018-Feb-21 11:00N 29°47' W 092°09'0 0.0
2018-Feb-21 10:30N 29°47' W 092°09'2 3.8
2018-Feb-21 10:00N 29°46' W 092°10'4 8.2
2018-Feb-21 09:31N 29°44' W 092°14'  
2018-Feb-15 04:25N 29°41' W 092°15'3 6.3
2018-Feb-15 04:00N 29°43' W 092°15'3 6.5
2018-Feb-15 03:30N 29°45' W 092°12'3 6.7
2018-Feb-15 03:01N 29°47' W 092°09'1 1.0
2018-Feb-15 02:30N 29°48' W 092°09'0 0.0
2018-Feb-15 02:00N 29°48' W 092°09'0 0.0
2018-Feb-15 01:30N 29°48' W 092°09'0 0.2
2018-Feb-15 01:00N 29°47' W 092°09'0 0.2
2018-Feb-15 00:30N 29°48' W 092°09'0 0.0
2018-Feb-15 00:01N 29°48' W 092°09'0 0.0
2018-Feb-14 23:30N 29°48' W 092°09'0 0.0
2018-Feb-14 23:00N 29°48' W 092°09'0 0.0
2018-Feb-14 22:30N 29°48' W 092°09'0 0.0
2018-Feb-14 22:01N 29°47' W 092°09'0 0.2
2018-Feb-14 21:31N 29°48' W 092°09'0 0.0
2018-Feb-14 21:00N 29°48' W 092°09'0 0.0
2018-Feb-14 20:30N 29°48' W 092°09'0 0.0
2018-Feb-14 20:00N 29°48' W 092°09'0 0.0
2018-Feb-14 19:30N 29°48' W 092°09'0 0.0
2018-Feb-14 19:00N 29°48' W 092°09'0 0.0
2018-Feb-14 18:31N 29°48' W 092°09'0 0.0
2018-Feb-14 18:01N 29°48' W 092°09'0 0.0
2018-Feb-14 17:31N 29°48' W 092°09'0 0.0
2018-Feb-14 17:01N 29°48' W 092°09'0 0.0
2018-Feb-14 16:30N 29°48' W 092°09'0 0.0
2018-Feb-14 16:00N 29°48' W 092°09'0 0.0
2018-Feb-14 15:31N 29°48' W 092°09'0 0.0
2018-Feb-14 14:59N 29°48' W 092°09'0 0.1
2018-Feb-14 14:30N 29°48' W 092°09'0 0.0
2018-Feb-14 14:00N 29°48' W 092°09'0 0.0
2018-Feb-14 13:29N 29°48' W 092°09'0 0.0
2018-Feb-14 13:00N 29°48' W 092°09'0 0.0
2018-Feb-14 12:30N 29°48' W 092°09'2 3.2
2018-Feb-14 12:00N 29°47' W 092°10'3 6.5
2018-Feb-14 11:30N 29°45' W 092°13'3 5.9
2018-Feb-14 11:00N 29°42' W 092°15'  
Track history (hours):
 
Tides and Currents Weather Stations Pressure Air Temp Water Temp Dewpoint Dewpoint Depression Visibility Wind Speed Wind Dir Waves Ship Positions

Ms Megan

Owner: MNM BOATS, INC, GOLDEN MEADOW, LA. More information available from US FCC via Universal Licensing System and Coast Guard Vessel Documentation Center.

Last reported at 2018-Feb-22 05:40 UTC. Time now 2018-Feb-23 10:34 UTC.
Position N 29°39' W 092°16'.

Length 50 m; draft 3 m.

Type: Cargo ship. MMSI: 367339130.

Date/timePositionNaut miles runAvg speedWind from/ knotsBaromVisibWave heightAir tempDewpointWater temp
2018-Feb-22 05:40N 29°39' W 092°16'1 8.1
2018-Feb-22 05:30N 29°41' W 092°15'4 7.9
2018-Feb-22 05:00N 29°44' W 092°14'4 7.9
2018-Feb-22 04:30N 29°47' W 092°10'2 3.1
2018-Feb-22 04:00N 29°48' W 092°09'0 0.0
2018-Feb-22 03:28N 29°48' W 092°09'0 0.0
2018-Feb-22 03:00N 29°48' W 092°09'0 0.0
2018-Feb-22 02:28N 29°48' W 092°09'0 0.0
2018-Feb-22 02:00N 29°48' W 092°09'0 0.0
2018-Feb-22 01:30N 29°48' W 092°09'0 0.0
2018-Feb-22 01:00N 29°48' W 092°09'0 0.0
2018-Feb-22 00:30N 29°48' W 092°09'0 0.0
2018-Feb-22 00:00N 29°48' W 092°09'0 0.0
2018-Feb-21 23:28N 29°48' W 092°09'0 0.0
2018-Feb-21 23:00N 29°48' W 092°09'0 0.0
2018-Feb-21 22:28N 29°48' W 092°09'0 0.2
2018-Feb-21 22:01N 29°48' W 092°09'0 0.0
2018-Feb-21 21:30N 29°48' W 092°09'0 0.0
2018-Feb-21 21:00N 29°48' W 092°09'0 0.0
2018-Feb-21 20:31N 29°48' W 092°09'0 0.1
2018-Feb-21 20:01N 29°48' W 092°08'0 0.1
2018-Feb-21 19:30N 29°48' W 092°09'0 0.0
2018-Feb-21 19:00N 29°48' W 092°09'0 0.2
2018-Feb-21 18:30N 29°48' W 092°09'0 0.0
2018-Feb-21 18:00N 29°48' W 092°09'0 0.0
2018-Feb-21 17:30N 29°48' W 092°09'0 0.0
2018-Feb-21 17:00N 29°48' W 092°09'0 0.1
2018-Feb-21 16:30N 29°47' W 092°09'0 0.1
2018-Feb-21 16:00N 29°47' W 092°09'0 0.2
2018-Feb-21 15:30N 29°48' W 092°09'0 0.2
2018-Feb-21 14:59N 29°47' W 092°09'0 0.0
2018-Feb-21 14:30N 29°47' W 092°09'0 0.0
2018-Feb-21 14:00N 29°47' W 092°09'0 0.0
2018-Feb-21 13:30N 29°47' W 092°09'0 0.0
2018-Feb-21 13:01N 29°47' W 092°09'0 0.0
2018-Feb-21 12:31N 29°47' W 092°09'0 0.0
2018-Feb-21 12:00N 29°47' W 092°09'0 0.0
2018-Feb-21 11:27N 29°47' W 092°09'0 0.0
2018-Feb-21 11:00N 29°47' W 092°09'0 0.0
2018-Feb-21 10:30N 29°47' W 092°09'2 3.8
2018-Feb-21 10:00N 29°46' W 092°10'4 8.2
2018-Feb-21 09:31N 29°44' W 092°14'  
2018-Feb-15 04:25N 29°41' W 092°15'3 6.3
2018-Feb-15 04:00N 29°43' W 092°15'3 6.5
2018-Feb-15 03:30N 29°45' W 092°12'3 6.7
2018-Feb-15 03:01N 29°47' W 092°09'1 1.0
2018-Feb-15 02:30N 29°48' W 092°09'0 0.0
2018-Feb-15 02:00N 29°48' W 092°09'0 0.0
2018-Feb-15 01:30N 29°48' W 092°09'0 0.2
2018-Feb-15 01:00N 29°47' W 092°09'0 0.2
2018-Feb-15 00:30N 29°48' W 092°09'0 0.0
2018-Feb-15 00:01N 29°48' W 092°09'0 0.0
2018-Feb-14 23:30N 29°48' W 092°09'0 0.0
2018-Feb-14 23:00N 29°48' W 092°09'0 0.0
2018-Feb-14 22:30N 29°48' W 092°09'0 0.0
2018-Feb-14 22:01N 29°47' W 092°09'0 0.2
2018-Feb-14 21:31N 29°48' W 092°09'0 0.0
2018-Feb-14 21:00N 29°48' W 092°09'0 0.0
2018-Feb-14 20:30N 29°48' W 092°09'0 0.0
2018-Feb-14 20:00N 29°48' W 092°09'0 0.0
2018-Feb-14 19:30N 29°48' W 092°09'0 0.0
2018-Feb-14 19:00N 29°48' W 092°09'0 0.0
2018-Feb-14 18:31N 29°48' W 092°09'0 0.0
2018-Feb-14 18:01N 29°48' W 092°09'0 0.0
2018-Feb-14 17:31N 29°48' W 092°09'0 0.0
2018-Feb-14 17:01N 29°48' W 092°09'0 0.0
2018-Feb-14 16:30N 29°48' W 092°09'0 0.0
2018-Feb-14 16:00N 29°48' W 092°09'0 0.0
2018-Feb-14 15:31N 29°48' W 092°09'0 0.0
2018-Feb-14 14:59N 29°48' W 092°09'0 0.1
2018-Feb-14 14:30N 29°48' W 092°09'0 0.0
2018-Feb-14 14:00N 29°48' W 092°09'0 0.0
2018-Feb-14 13:29N 29°48' W 092°09'0 0.0
2018-Feb-14 13:00N 29°48' W 092°09'0 0.0
2018-Feb-14 12:30N 29°48' W 092°09'2 3.2
2018-Feb-14 12:00N 29°47' W 092°10'3 6.5
2018-Feb-14 11:30N 29°45' W 092°13'3 5.9
2018-Feb-14 11:00N 29°42' W 092°15'  

Dump ship's entire track history